createdAt,value
2022-10-04T00:00:55.190Z,95026.03
2022-10-04T00:03:58.173Z,95033.69
2022-10-04T00:06:56.194Z,95015.84
2022-10-04T00:09:33.432Z,95021.78
2022-10-04T00:12:40.192Z,95023.50
2022-10-04T00:15:36.206Z,95040.53
2022-10-04T00:18:51.215Z,95022.66
2022-10-04T00:22:02.196Z,95025.22
2022-10-04T00:24:37.314Z,95029.50
2022-10-04T00:27:28.210Z,95017.59
2022-10-04T00:30:17.207Z,95022.72
2022-10-04T00:33:15.212Z,95023.59
2022-10-04T00:36:02.188Z,95023.59
2022-10-04T00:38:42.226Z,95018.50
2022-10-04T00:41:30.222Z,95021.91
2022-10-04T00:44:05.267Z,95025.28
2022-10-04T00:46:55.209Z,95031.28
2022-10-04T00:49:32.265Z,95032.97
2022-10-04T00:52:26.227Z,95027.88
2022-10-04T00:55:13.203Z,95037.19
2022-10-04T00:58:06.237Z,95035.50
2022-10-04T01:00:41.333Z,95035.50
2022-10-04T01:03:37.218Z,95033.81
2022-10-04T01:06:14.338Z,95027.88
2022-10-04T01:09:07.209Z,95025.34
2022-10-04T01:11:57.341Z,95032.16
2022-10-04T01:15:15.221Z,95026.22
2022-10-04T01:18:09.447Z,95025.44
2022-10-04T01:21:03.208Z,95017.81
2022-10-04T01:23:47.263Z,95019.53
2022-10-04T01:26:41.232Z,95025.50
2022-10-04T01:29:35.213Z,95024.69
2022-10-04T01:32:08.302Z,95027.22
2022-10-04T01:34:55.224Z,95022.97
2022-10-04T01:37:28.356Z,95017.91
2022-10-04T01:40:16.230Z,95017.06
2022-10-04T01:42:56.281Z,95013.66
2022-10-04T01:46:03.279Z,95029.84
2022-10-04T01:48:49.237Z,95030.69
2022-10-04T01:51:57.255Z,95024.75
2022-10-04T01:54:52.240Z,95023.06
2022-10-04T01:57:40.252Z,95015.41
2022-10-04T02:00:36.224Z,95012.03
2022-10-04T02:03:34.289Z,95013.75
2022-10-04T02:06:11.307Z,95009.50
2022-10-04T02:09:04.232Z,95016.28
2022-10-04T02:11:46.262Z,95014.59
2022-10-04T02:14:46.234Z,95024.81
2022-10-04T02:17:44.282Z,95022.28
2022-10-04T02:20:40.253Z,95023.13
2022-10-04T02:23:29.260Z,95024.78
2022-10-04T02:26:02.328Z,95020.53
2022-10-04T02:28:49.281Z,95015.44
2022-10-04T02:31:47.015Z,95017.13
2022-10-04T02:34:33.259Z,95020.47
2022-10-04T02:37:09.349Z,95024.72
2022-10-04T02:40:13.248Z,95020.47
2022-10-04T02:43:06.331Z,95013.69
2022-10-04T02:46:00.256Z,95017.09
2022-10-04T02:48:46.276Z,95029.00
2022-10-04T02:51:41.448Z,95028.16
2022-10-04T02:54:33.717Z,95023.91
2022-10-04T02:57:26.310Z,95016.28
2022-10-04T03:00:23.254Z,95009.50
2022-10-04T03:03:31.279Z,95006.97
2022-10-04T03:06:19.243Z,95013.78
2022-10-04T03:09:17.293Z,95007.88
2022-10-04T03:12:11.265Z,95015.53
2022-10-04T03:15:08.240Z,95018.13
2022-10-04T03:17:56.260Z,95014.72
2022-10-04T03:20:29.338Z,95024.06
2022-10-04T03:23:18.290Z,95023.22
2022-10-04T03:26:06.280Z,95033.41
2022-10-04T03:29:00.298Z,95024.06
2022-10-04T03:31:50.318Z,95030.00
2022-10-04T03:34:27.405Z,95026.59
2022-10-04T03:37:21.287Z,95023.22
2022-10-04T03:40:07.269Z,95033.41
2022-10-04T03:43:01.297Z,95037.63
2022-10-04T03:45:48.326Z,95032.53
2022-10-04T03:48:31.307Z,95028.28
2022-10-04T03:51:25.306Z,95031.69
2022-10-04T03:54:09.300Z,95033.38
2022-10-04T03:57:05.291Z,95044.41
2022-10-04T04:00:07.313Z,95041.03
2022-10-04T04:03:11.289Z,95046.13
2022-10-04T04:06:04.285Z,95043.53
2022-10-04T04:08:43.396Z,95047.78
2022-10-04T04:11:33.298Z,95052.88
2022-10-04T04:14:17.306Z,95055.44
2022-10-04T04:17:33.304Z,95051.16
2022-10-04T04:20:10.376Z,95040.09
2022-10-04T04:23:05.303Z,95047.72
2022-10-04T04:25:50.285Z,95041.75
2022-10-04T04:28:52.300Z,95041.75
2022-10-04T04:31:52.339Z,95043.50
2022-10-04T04:34:31.441Z,95038.41
2022-10-04T04:37:18.313Z,95022.28
2022-10-04T04:39:57.916Z,95041.03
2022-10-04T04:42:44.330Z,95047.00
2022-10-04T04:45:33.461Z,95048.72
2022-10-04T04:48:23.315Z,95045.31
2022-10-04T04:51:08.323Z,95055.53
2022-10-04T04:53:56.334Z,95061.50
2022-10-04T04:56:34.400Z,95064.06
2022-10-04T04:59:22.322Z,95054.75
2022-10-04T05:01:55.486Z,95064.09
2022-10-04T05:04:42.305Z,95063.25
2022-10-04T05:07:23.416Z,95063.31
2022-10-04T05:10:39.294Z,95071.84
2022-10-04T05:13:20.360Z,95083.75
2022-10-04T05:16:08.343Z,95083.75
2022-10-04T05:18:41.423Z,95093.94
2022-10-04T05:21:33.323Z,95093.94
2022-10-04T05:24:19.396Z,95099.03
2022-10-04T05:27:10.321Z,95095.63
2022-10-04T05:29:50.789Z,95108.34
2022-10-04T05:32:46.339Z,95106.69
2022-10-04T05:35:28.446Z,95102.41
2022-10-04T05:38:42.328Z,95106.66
2022-10-04T05:41:34.397Z,95108.31
2022-10-04T05:44:52.355Z,95107.47
2022-10-04T05:47:35.353Z,95105.75
2022-10-04T05:50:43.351Z,95113.41
2022-10-04T05:53:40.349Z,95108.28
2022-10-04T05:56:27.411Z,95111.66
2022-10-04T05:59:29.343Z,95107.41
2022-10-04T06:02:15.382Z,95115.03
2022-10-04T06:05:06.349Z,95120.09
2022-10-04T06:07:45.476Z,95126.03
2022-10-04T06:10:59.366Z,95126.84
2022-10-04T06:14:20.420Z,95133.63
2022-10-04T06:17:29.366Z,95136.16
2022-10-04T06:20:37.418Z,95134.44
2022-10-04T06:23:25.358Z,95139.50
2022-10-04T06:26:14.372Z,95139.53
2022-10-04T06:29:17.376Z,95145.44
2022-10-04T06:32:00.456Z,95149.72
2022-10-04T06:34:59.336Z,95155.66
2022-10-04T06:38:31.392Z,95148.81
2022-10-04T06:41:50.332Z,95155.59
2022-10-04T06:44:46.431Z,95165.75
2022-10-04T06:48:02.355Z,95157.22
2022-10-04T06:51:01.364Z,95161.50
2022-10-04T06:53:47.356Z,95164.03
2022-10-04T06:57:16.375Z,95176.75
2022-10-04T07:00:18.353Z,95169.94
2022-10-04T07:03:23.392Z,95175.00
2022-10-04T07:06:12.384Z,95180.94
2022-10-04T07:09:01.520Z,95177.50
2022-10-04T07:11:56.505Z,95180.88
2022-10-04T07:14:40.438Z,95185.09
2022-10-04T07:17:39.422Z,95188.50
2022-10-04T07:20:14.420Z,95195.31
2022-10-04T07:23:12.382Z,95195.31
2022-10-04T07:26:01.453Z,95193.59
2022-10-04T07:29:09.402Z,95202.09
2022-10-04T07:31:50.395Z,95208.91
2022-10-04T07:34:41.379Z,95214.00
2022-10-04T07:37:19.497Z,95219.13
2022-10-04T07:40:25.374Z,95220.81
2022-10-04T07:43:16.390Z,95223.34
2022-10-04T07:46:25.440Z,95223.34
2022-10-04T07:49:20.384Z,95219.06
2022-10-04T07:52:11.443Z,95225.84
2022-10-04T07:55:03.421Z,95234.34
2022-10-04T07:58:07.213Z,95242.84
2022-10-04T08:01:30.441Z,95239.41
2022-10-04T08:04:36.402Z,95255.56
2022-10-04T08:07:27.402Z,95256.44
2022-10-04T08:11:02.395Z,95252.16
2022-10-04T08:13:59.409Z,95257.28
2022-10-04T08:16:43.639Z,95264.94
2022-10-04T08:19:39.406Z,95268.38
2022-10-04T08:22:27.532Z,95264.09
2022-10-04T08:25:32.404Z,95279.41
2022-10-04T08:28:39.415Z,95278.56
2022-10-04T08:31:45.411Z,95275.16
2022-10-04T08:34:51.413Z,95284.50
2022-10-04T08:37:53.813Z,95287.91
2022-10-04T08:41:07.434Z,95287.06
2022-10-04T08:44:03.417Z,95293.00
2022-10-04T08:47:58.411Z,95289.53
2022-10-04T08:51:37.419Z,95296.34
2022-10-04T08:55:08.425Z,95304.84
2022-10-04T08:58:08.410Z,95304.03
2022-10-04T09:01:10.466Z,95304.84
2022-10-04T09:04:41.409Z,95309.97
2022-10-04T09:08:11.421Z,95321.88
2022-10-04T09:10:57.429Z,95315.91
2022-10-04T09:13:51.425Z,95320.19
2022-10-04T09:16:38.428Z,95328.66
2022-10-04T09:20:04.870Z,95326.97
2022-10-04T09:23:11.511Z,95329.47
2022-10-04T09:26:35.423Z,95330.31
2022-10-04T09:29:11.493Z,95334.56
2022-10-04T09:32:23.452Z,95333.69
2022-10-04T09:35:01.433Z,95339.66
2022-10-04T09:37:54.448Z,95343.03
2022-10-04T09:41:02.023Z,95340.47
2022-10-04T09:44:25.431Z,95343.03
2022-10-04T09:47:10.639Z,95348.97
2022-10-04T09:50:24.448Z,95349.81
2022-10-04T09:53:38.457Z,95351.50
2022-10-04T09:56:46.798Z,95356.56
2022-10-04T10:00:25.478Z,95361.59
2022-10-04T10:03:23.700Z,95356.47
2022-10-04T10:06:10.443Z,95364.09
2022-10-04T10:09:51.446Z,95367.50
2022-10-04T10:13:03.439Z,95369.19
2022-10-04T10:16:06.485Z,95376.81
2022-10-04T10:19:30.467Z,95370.03
2022-10-04T10:22:48.452Z,95379.38
2022-10-04T10:26:11.469Z,95376.81
2022-10-04T10:29:04.432Z,95382.78
2022-10-04T10:31:57.530Z,95386.16
2022-10-04T10:35:21.451Z,95392.16
2022-10-04T10:38:04.410Z,95391.28
2022-10-04T10:40:51.447Z,95393.84
2022-10-04T10:43:53.475Z,95404.09
2022-10-04T10:47:05.467Z,95398.09
2022-10-04T10:49:55.466Z,95404.94
2022-10-04T10:52:46.493Z,95402.34
2022-10-04T10:56:05.453Z,95403.13
2022-10-04T10:59:12.494Z,95407.34
2022-10-04T11:02:25.635Z,95409.88
2022-10-04T11:05:55.471Z,95413.25
2022-10-04T11:08:41.475Z,95415.81
2022-10-04T11:11:53.483Z,95416.66
2022-10-04T11:14:35.621Z,95421.75
2022-10-04T11:17:42.474Z,95422.59
2022-10-04T11:20:28.560Z,95414.09
2022-10-04T11:23:52.499Z,95418.34
2022-10-04T11:27:07.465Z,95419.22
2022-10-04T11:30:29.486Z,95421.75
2022-10-04T11:33:50.477Z,95429.41
2022-10-04T11:36:35.563Z,95431.97
2022-10-04T11:40:10.493Z,95435.38
2022-10-04T11:43:20.492Z,95442.19
2022-10-04T11:46:25.498Z,95440.50
2022-10-04T11:49:12.502Z,95443.88
2022-10-04T11:52:02.096Z,95438.72
2022-10-04T11:55:24.501Z,95438.72
2022-10-04T11:58:28.499Z,95442.97
2022-10-04T12:01:25.495Z,95447.19
2022-10-04T12:04:54.526Z,95451.47
2022-10-04T12:08:09.538Z,95448.03
2022-10-04T12:10:47.580Z,95449.69
2022-10-04T12:13:46.482Z,95448.81
2022-10-04T12:16:50.023Z,95448.81
2022-10-04T12:19:46.483Z,95452.22
2022-10-04T12:22:49.523Z,95440.25
2022-10-04T12:26:00.496Z,95447.91
2022-10-04T12:29:29.544Z,95437.66
2022-10-04T12:32:24.672Z,95436.78
2022-10-04T12:35:42.527Z,95450.38
2022-10-04T12:38:49.822Z,95434.16
2022-10-04T12:41:42.528Z,95437.56
2022-10-04T12:44:40.930Z,95434.97
2022-10-04T12:47:58.520Z,95434.97
2022-10-04T12:51:00.590Z,95436.66
2022-10-04T12:54:13.555Z,95438.34
2022-10-04T12:57:08.588Z,95454.56
2022-10-04T12:59:55.509Z,95445.19
2022-10-04T13:02:41.547Z,95452.03
2022-10-04T13:06:02.534Z,95449.50
2022-10-04T13:09:04.527Z,95465.69
2022-10-04T13:12:11.529Z,95459.75
2022-10-04T13:15:19.526Z,95469.97
2022-10-04T13:18:17.526Z,95471.69
2022-10-04T13:21:07.528Z,95471.66
2022-10-04T13:23:59.530Z,95467.41
2022-10-04T13:27:06.557Z,95467.38
2022-10-04T13:30:12.554Z,95484.44
2022-10-04T13:33:08.547Z,95481.88
2022-10-04T13:35:56.527Z,95487.00
2022-10-04T13:39:10.549Z,95485.31
2022-10-04T13:42:12.444Z,95491.31
2022-10-04T13:45:01.564Z,95499.81
2022-10-04T13:48:13.146Z,95495.53
2022-10-04T13:51:32.550Z,95504.91
2022-10-04T13:55:06.548Z,95501.50
2022-10-04T13:58:04.545Z,95502.34
2022-10-04T14:00:57.591Z,95505.78
2022-10-04T14:03:39.683Z,95510.91
2022-10-04T14:06:43.571Z,95513.44
2022-10-04T14:09:36.834Z,95521.13
2022-10-04T14:12:41.578Z,95518.56
2022-10-04T14:15:28.701Z,95526.25
2022-10-04T14:18:23.469Z,95520.28
2022-10-04T14:21:19.232Z,95533.94
2022-10-04T14:24:53.580Z,95528.00
2022-10-04T14:27:43.568Z,95531.44
2022-10-04T14:30:52.545Z,95532.28
2022-10-04T14:33:39.558Z,95534.88
2022-10-04T14:36:52.587Z,95530.59
2022-10-04T14:40:21.558Z,95525.50
2022-10-04T14:43:27.564Z,95537.44
2022-10-04T14:46:13.210Z,95539.16
2022-10-04T14:49:16.568Z,95524.69
2022-10-04T14:51:53.978Z,95529.81
2022-10-04T14:55:13.584Z,95539.19
2022-10-04T14:57:52.668Z,95537.50
2022-10-04T15:01:10.598Z,95543.47
2022-10-04T15:04:17.695Z,95542.63
2022-10-04T15:07:10.588Z,95543.50
2022-10-04T15:10:18.569Z,95549.44
2022-10-04T15:13:16.647Z,95545.22
2022-10-04T15:16:40.574Z,95547.78
2022-10-04T15:19:28.652Z,95545.25
2022-10-04T15:22:29.599Z,95552.94
2022-10-04T15:25:03.446Z,95548.69
2022-10-04T15:28:00.647Z,95558.06
2022-10-04T15:30:43.784Z,95561.50
2022-10-04T15:33:33.597Z,95565.78
2022-10-04T15:36:38.612Z,95565.81
2022-10-04T15:39:45.595Z,95568.38
2022-10-04T15:42:39.598Z,95575.19
2022-10-04T15:45:21.671Z,95581.19
2022-10-04T15:48:17.597Z,95585.47
2022-10-04T15:51:11.162Z,95590.59
2022-10-04T15:54:22.612Z,95588.06
2022-10-04T15:57:02.672Z,95593.22
2022-10-04T16:00:00.584Z,95603.47
2022-10-04T16:03:21.744Z,95602.63
2022-10-04T16:06:32.607Z,95600.09
2022-10-04T16:09:33.609Z,95606.91
2022-10-04T16:12:42.611Z,95608.66
2022-10-04T16:15:44.627Z,95609.53
2022-10-04T16:18:36.827Z,95611.25
2022-10-04T16:21:26.614Z,95603.63
2022-10-04T16:24:28.968Z,95614.69
2022-10-04T16:27:29.604Z,95610.47
2022-10-04T16:30:27.004Z,95619.84
2022-10-04T16:33:33.710Z,95617.31
2022-10-04T16:36:22.702Z,95628.38
2022-10-04T16:39:29.617Z,95629.19
2022-10-04T16:42:19.641Z,95630.09
2022-10-04T16:45:38.713Z,95626.66
2022-10-04T16:48:38.786Z,95636.88
2022-10-04T16:51:25.629Z,95639.44
2022-10-04T16:54:28.625Z,95639.44
2022-10-04T16:57:20.642Z,95644.53
2022-10-04T17:00:00.765Z,95643.69
2022-10-04T17:03:21.636Z,95644.53
2022-10-04T17:06:26.644Z,95649.63
2022-10-04T17:09:35.656Z,95650.50
2022-10-04T17:12:43.621Z,95657.28
2022-10-04T17:15:44.688Z,95662.38
2022-10-04T17:18:42.633Z,95657.25
2022-10-04T17:21:48.637Z,95662.38
2022-10-04T17:25:01.639Z,95664.91
2022-10-04T17:28:03.706Z,95669.16
2022-10-04T17:31:32.720Z,95675.06
2022-10-04T17:34:34.671Z,95680.13
2022-10-04T17:37:22.743Z,95681.00
2022-10-04T17:40:18.705Z,95679.28
2022-10-04T17:43:22.785Z,95685.19
2022-10-04T17:46:35.705Z,95692.84
2022-10-04T17:49:40.679Z,95702.16
2022-10-04T17:53:08.655Z,95710.63
2022-10-04T17:55:55.814Z,95713.97
2022-10-04T17:59:05.631Z,95704.63
2022-10-04T18:01:44.821Z,95721.63
2022-10-04T18:04:36.652Z,95717.31
2022-10-04T18:07:30.667Z,95721.56
2022-10-04T18:10:36.703Z,95724.06
2022-10-04T18:14:08.720Z,95730.84
2022-10-04T18:17:08.702Z,95734.22
2022-10-04T18:20:03.665Z,95739.25
2022-10-04T18:23:02.690Z,95735.84
2022-10-04T18:25:56.679Z,95749.41
2022-10-04T18:28:43.682Z,95749.38
2022-10-04T18:31:37.875Z,95751.88
2022-10-04T18:34:34.680Z,95758.66
2022-10-04T18:37:34.869Z,95757.78
2022-10-04T18:40:34.658Z,95763.66
2022-10-04T18:43:07.743Z,95761.06
2022-10-04T18:46:08.762Z,95757.66
2022-10-04T18:48:47.464Z,95768.66
2022-10-04T18:51:48.694Z,95771.16
2022-10-04T18:54:45.486Z,95772.03
2022-10-04T18:58:07.682Z,95780.44
2022-10-04T19:01:14.710Z,95781.31
2022-10-04T19:04:09.682Z,95794.84
2022-10-04T19:06:51.678Z,95791.41
2022-10-04T19:10:03.683Z,95789.69
2022-10-04T19:13:05.699Z,95799.81
2022-10-04T19:16:08.804Z,95798.13
2022-10-04T19:19:02.751Z,95794.72
2022-10-04T19:21:48.683Z,95804.84
2022-10-04T19:25:10.714Z,95794.72
2022-10-04T19:28:20.779Z,95810.81
2022-10-04T19:31:18.847Z,95808.28
2022-10-04T19:34:21.699Z,95820.94
2022-10-04T19:36:59.769Z,95815.00
2022-10-04T19:39:54.683Z,95817.53
2022-10-04T19:43:09.692Z,95824.28
2022-10-04T19:46:21.703Z,95819.28
2022-10-04T19:49:09.724Z,95823.53
2022-10-04T19:51:51.269Z,95835.41
2022-10-04T19:54:45.718Z,95835.47
2022-10-04T19:57:28.726Z,95828.72
2022-10-04T20:00:26.695Z,95844.00
2022-10-04T20:03:24.725Z,95849.13
2022-10-04T20:06:19.725Z,95844.91
2022-10-04T20:09:28.708Z,95839.84
2022-10-04T20:12:08.764Z,95844.09
2022-10-04T20:15:02.727Z,95850.00
2022-10-04T20:17:51.718Z,95856.75
2022-10-04T20:20:57.840Z,95855.03
2022-10-04T20:23:56.497Z,95858.41
2022-10-04T20:27:12.746Z,95857.56
2022-10-04T20:29:45.949Z,95864.34
2022-10-04T20:32:43.743Z,95863.50
2022-10-04T20:35:25.747Z,95866.00
2022-10-04T20:38:31.267Z,95865.13
2022-10-04T20:41:11.724Z,95864.28
2022-10-04T20:44:07.735Z,95867.59
2022-10-04T20:46:47.256Z,95865.00
2022-10-04T20:49:34.721Z,95866.72
2022-10-04T20:52:07.805Z,95870.03
2022-10-04T20:55:01.758Z,95875.94
2022-10-04T20:57:40.605Z,95881.81
2022-10-04T21:00:29.739Z,95875.03
2022-10-04T21:03:27.733Z,95873.31
2022-10-04T21:06:16.725Z,95875.84
2022-10-04T21:08:56.750Z,95870.69
2022-10-04T21:11:58.780Z,95882.53
2022-10-04T21:14:45.742Z,95876.63
2022-10-04T21:17:37.261Z,95886.75
2022-10-04T21:20:56.723Z,95892.66
2022-10-04T21:23:44.758Z,95893.50
2022-10-04T21:26:31.735Z,95890.09
2022-10-04T21:29:04.821Z,95901.91
2022-10-04T21:31:51.793Z,95907.00
2022-10-04T21:34:51.951Z,95900.19
2022-10-04T21:37:46.752Z,95901.00
2022-10-04T21:40:33.733Z,95906.06
2022-10-04T21:43:06.867Z,95903.44
2022-10-04T21:45:54.179Z,95905.91
2022-10-04T21:48:34.756Z,95912.66
2022-10-04T21:51:21.751Z,95903.28
2022-10-04T21:53:57.806Z,95913.38
2022-10-04T21:56:44.925Z,95915.84
2022-10-04T21:59:18.815Z,95908.13
2022-10-04T22:02:05.786Z,95915.69
2022-10-04T22:04:38.827Z,95916.44
2022-10-04T22:07:25.754Z,95920.63
2022-10-04T22:10:05.784Z,95920.53
2022-10-04T22:12:52.751Z,95920.44
2022-10-04T22:15:32.769Z,95930.50
2022-10-04T22:18:26.758Z,95936.41
2022-10-04T22:21:13.770Z,95938.88
2022-10-04T22:23:48.857Z,95941.41
2022-10-04T22:26:35.752Z,95942.97
2022-10-04T22:29:08.863Z,95940.44
2022-10-04T22:31:57.802Z,95939.53
2022-10-04T22:34:30.842Z,95943.88
2022-10-04T22:37:18.762Z,95943.13
2022-10-04T22:39:52.148Z,95933.94
2022-10-04T22:42:38.757Z,95940.69
2022-10-04T22:45:42.808Z,95949.09
2022-10-04T22:48:36.783Z,95959.13
2022-10-04T22:51:23.753Z,95962.41
2022-10-04T22:53:56.843Z,95967.50
2022-10-04T22:56:44.140Z,95965.84
2022-10-04T22:59:26.786Z,95973.47
2022-10-04T23:02:20.796Z,95989.53
2022-10-04T23:05:05.811Z,95992.00
2022-10-04T23:08:00.785Z,95990.22
2022-10-04T23:10:47.787Z,95985.13
2022-10-04T23:13:24.573Z,95988.41
2022-10-04T23:16:24.816Z,95990.06
2022-10-04T23:19:06.866Z,95992.66
2022-10-04T23:21:55.781Z,95981.69
2022-10-04T23:24:29.850Z,95976.66
2022-10-04T23:27:22.815Z,95977.47
2022-10-04T23:30:03.367Z,95969.81
2022-10-04T23:32:51.818Z,95963.84
2022-10-04T23:35:36.803Z,95957.09
2022-10-04T23:38:33.797Z,95951.22
2022-10-04T23:41:20.811Z,95945.22
2022-10-04T23:43:55.865Z,95952.69
2022-10-04T23:46:42.994Z,95948.44
2022-10-04T23:49:23.572Z,95949.22
2022-10-04T23:52:10.807Z,95962.72
2022-10-04T23:54:43.858Z,95961.00
2022-10-04T23:57:32.792Z,95963.53
